sensor_id;sensor_type;location;lat;lon;timestamp;P1;durP1;ratioP1;P2;durP2;ratioP2
39308;SDS011;26019;47.510;19.122;2022-09-16T00:08:44;7.45;;;5.90;;
39308;SDS011;26019;47.510;19.122;2022-09-16T00:18:52;9.32;;;5.38;;
39308;SDS011;26019;47.510;19.122;2022-09-16T00:28:55;5.80;;;4.57;;
39308;SDS011;26019;47.510;19.122;2022-09-16T00:38:57;5.67;;;5.00;;
39308;SDS011;26019;47.510;19.122;2022-09-16T00:49:02;11.73;;;6.70;;
39308;SDS011;26019;47.510;19.122;2022-09-16T00:59:20;6.03;;;5.13;;
39308;SDS011;26019;47.510;19.122;2022-09-16T01:09:28;5.57;;;5.05;;
39308;SDS011;26019;47.510;19.122;2022-09-16T01:19:36;8.85;;;5.75;;
39308;SDS011;26019;47.510;19.122;2022-09-16T01:40:15;10.23;;;5.90;;
39308;SDS011;26019;47.510;19.122;2022-09-16T02:00:50;6.82;;;5.93;;
39308;SDS011;26019;47.510;19.122;2022-09-16T02:11:01;8.00;;;6.43;;
39308;SDS011;26019;47.510;19.122;2022-09-16T02:21:09;9.13;;;6.82;;
39308;SDS011;26019;47.510;19.122;2022-09-16T02:31:15;9.52;;;7.03;;
39308;SDS011;26019;47.510;19.122;2022-09-16T02:41:21;12.77;;;8.45;;
39308;SDS011;26019;47.510;19.122;2022-09-16T03:01:51;16.05;;;11.57;;
39308;SDS011;26019;47.510;19.122;2022-09-16T03:22:36;14.98;;;10.63;;
39308;SDS011;26019;47.510;19.122;2022-09-16T03:32:43;19.05;;;12.45;;
39308;SDS011;26019;47.510;19.122;2022-09-16T03:42:59;22.35;;;14.80;;
39308;SDS011;26019;47.510;19.122;2022-09-16T03:53:10;21.35;;;14.45;;
39308;SDS011;26019;47.510;19.122;2022-09-16T04:03:12;18.23;;;13.33;;
39308;SDS011;26019;47.510;19.122;2022-09-16T04:13:14;17.53;;;12.83;;
39308;SDS011;26019;47.510;19.122;2022-09-16T04:23:17;18.07;;;13.30;;
39308;SDS011;26019;47.510;19.122;2022-09-16T04:33:18;17.63;;;13.23;;
39308;SDS011;26019;47.510;19.122;2022-09-16T04:43:20;20.50;;;14.67;;
39308;SDS011;26019;47.510;19.122;2022-09-16T04:53:22;21.60;;;15.47;;
39308;SDS011;26019;47.510;19.122;2022-09-16T05:03:24;20.27;;;14.38;;
39308;SDS011;26019;47.510;19.122;2022-09-16T05:13:27;21.50;;;15.03;;
39308;SDS011;26019;47.510;19.122;2022-09-16T05:23:29;15.35;;;10.82;;
39308;SDS011;26019;47.510;19.122;2022-09-16T05:33:31;14.52;;;10.52;;
39308;SDS011;26019;47.510;19.122;2022-09-16T05:43:34;17.67;;;12.00;;
39308;SDS011;26019;47.510;19.122;2022-09-16T05:53:42;15.02;;;9.63;;
39308;SDS011;26019;47.510;19.122;2022-09-16T06:03:45;16.45;;;10.18;;
39308;SDS011;26019;47.510;19.122;2022-09-16T06:13:51;13.95;;;10.63;;
39308;SDS011;26019;47.510;19.122;2022-09-16T06:23:56;14.57;;;9.23;;
39308;SDS011;26019;47.510;19.122;2022-09-16T06:33:58;12.50;;;9.00;;
39308;SDS011;26019;47.510;19.122;2022-09-16T06:43:59;13.97;;;8.70;;
39308;SDS011;26019;47.510;19.122;2022-09-16T06:54:03;13.73;;;9.63;;
39308;SDS011;26019;47.510;19.122;2022-09-16T07:04:07;17.00;;;8.60;;
39308;SDS011;26019;47.510;19.122;2022-09-16T07:14:12;20.30;;;7.50;;
39308;SDS011;26019;47.510;19.122;2022-09-16T07:24:13;7.68;;;6.47;;
39308;SDS011;26019;47.510;19.122;2022-09-16T07:34:34;12.25;;;7.78;;
39308;SDS011;26019;47.510;19.122;2022-09-16T07:44:38;13.05;;;6.97;;
39308;SDS011;26019;47.510;19.122;2022-09-16T07:54:40;11.43;;;6.13;;
39308;SDS011;26019;47.510;19.122;2022-09-16T08:04:42;6.10;;;4.90;;
39308;SDS011;26019;47.510;19.122;2022-09-16T08:14:45;8.85;;;5.25;;
39308;SDS011;26019;47.510;19.122;2022-09-16T08:34:48;8.10;;;5.40;;
39308;SDS011;26019;47.510;19.122;2022-09-16T08:45:38;5.88;;;4.20;;
39308;SDS011;26019;47.510;19.122;2022-09-16T08:55:21;9.52;;;5.03;;
39308;SDS011;26019;47.510;19.122;2022-09-16T09:16:02;14.23;;;5.15;;
39308;SDS011;26019;47.510;19.122;2022-09-16T09:26:11;6.23;;;4.03;;
39308;SDS011;26019;47.510;19.122;2022-09-16T09:46:35;4.30;;;3.13;;
39308;SDS011;26019;47.510;19.122;2022-09-16T09:56:41;6.45;;;3.67;;
39308;SDS011;26019;47.510;19.122;2022-09-16T10:06:48;4.82;;;3.17;;
39308;SDS011;26019;47.510;19.122;2022-09-16T10:16:53;3.80;;;2.10;;
39308;SDS011;26019;47.510;19.122;2022-09-16T10:27:14;5.95;;;2.33;;
39308;SDS011;26019;47.510;19.122;2022-09-16T10:37:21;3.20;;;1.90;;
39308;SDS011;26019;47.510;19.122;2022-09-16T10:47:29;5.38;;;2.25;;
39308;SDS011;26019;47.510;19.122;2022-09-16T10:57:33;8.95;;;3.65;;
39308;SDS011;26019;47.510;19.122;2022-09-16T11:17:56;4.80;;;2.22;;
39308;SDS011;26019;47.510;19.122;2022-09-16T11:38:30;4.88;;;2.08;;
39308;SDS011;26019;47.510;19.122;2022-09-16T11:48:55;3.13;;;1.95;;
39308;SDS011;26019;47.510;19.122;2022-09-16T11:59:15;5.07;;;1.83;;
39308;SDS011;26019;47.510;19.122;2022-09-16T12:20:12;3.70;;;1.75;;
39308;SDS011;26019;47.510;19.122;2022-09-16T12:30:19;7.85;;;2.22;;
39308;SDS011;26019;47.510;19.122;2022-09-16T12:40:25;5.47;;;2.70;;
39308;SDS011;26019;47.510;19.122;2022-09-16T13:11:19;3.17;;;2.40;;
39308;SDS011;26019;47.510;19.122;2022-09-16T13:21:43;6.97;;;2.10;;
39308;SDS011;26019;47.510;19.122;2022-09-16T13:31:47;4.35;;;2.22;;
39308;SDS011;26019;47.510;19.122;2022-09-16T13:41:49;3.88;;;2.15;;
39308;SDS011;26019;47.510;19.122;2022-09-16T13:51:52;6.25;;;2.50;;
39308;SDS011;26019;47.510;19.122;2022-09-16T14:12:10;7.95;;;2.22;;
39308;SDS011;26019;47.510;19.122;2022-09-16T14:22:18;8.73;;;2.30;;
39308;SDS011;26019;47.510;19.122;2022-09-16T14:32:28;4.90;;;2.28;;
39308;SDS011;26019;47.510;19.122;2022-09-16T14:42:31;3.95;;;2.08;;
39308;SDS011;26019;47.510;19.122;2022-09-16T14:52:35;5.05;;;2.63;;
39308;SDS011;26019;47.510;19.122;2022-09-16T15:02:57;4.82;;;2.00;;
39308;SDS011;26019;47.510;19.122;2022-09-16T15:13:11;7.35;;;2.20;;
39308;SDS011;26019;47.510;19.122;2022-09-16T15:23:19;5.65;;;2.83;;
39308;SDS011;26019;47.510;19.122;2022-09-16T15:33:34;9.48;;;3.65;;
39308;SDS011;26019;47.510;19.122;2022-09-16T15:43:41;7.30;;;3.88;;
39308;SDS011;26019;47.510;19.122;2022-09-16T15:53:45;5.93;;;3.45;;
39308;SDS011;26019;47.510;19.122;2022-09-16T16:03:51;9.88;;;3.30;;
39308;SDS011;26019;47.510;19.122;2022-09-16T16:13:56;10.70;;;3.22;;
39308;SDS011;26019;47.510;19.122;2022-09-16T16:24:02;4.68;;;3.10;;
39308;SDS011;26019;47.510;19.122;2022-09-16T16:34:04;3.55;;;2.85;;
39308;SDS011;26019;47.510;19.122;2022-09-16T16:44:05;3.47;;;2.70;;
39308;SDS011;26019;47.510;19.122;2022-09-16T16:54:07;6.40;;;3.63;;
39308;SDS011;26019;47.510;19.122;2022-09-16T17:04:09;4.75;;;3.10;;
39308;SDS011;26019;47.510;19.122;2022-09-16T17:14:10;6.73;;;2.90;;
39308;SDS011;26019;47.510;19.122;2022-09-16T17:24:12;14.07;;;4.20;;
39308;SDS011;26019;47.510;19.122;2022-09-16T17:34:14;6.55;;;3.10;;
39308;SDS011;26019;47.510;19.122;2022-09-16T17:44:16;5.75;;;3.30;;
39308;SDS011;26019;47.510;19.122;2022-09-16T17:54:19;4.75;;;2.90;;
39308;SDS011;26019;47.510;19.122;2022-09-16T18:04:21;7.28;;;4.25;;
39308;SDS011;26019;47.510;19.122;2022-09-16T18:14:23;6.00;;;3.60;;
39308;SDS011;26019;47.510;19.122;2022-09-16T18:24:32;9.45;;;2.85;;
39308;SDS011;26019;47.510;19.122;2022-09-16T18:34:34;7.15;;;3.70;;
39308;SDS011;26019;47.510;19.122;2022-09-16T18:44:35;7.57;;;2.93;;
39308;SDS011;26019;47.510;19.122;2022-09-16T18:54:38;11.60;;;4.47;;
39308;SDS011;26019;47.510;19.122;2022-09-16T19:04:41;7.20;;;3.63;;
39308;SDS011;26019;47.510;19.122;2022-09-16T19:24:51;5.10;;;3.25;;
39308;SDS011;26019;47.510;19.122;2022-09-16T19:34:55;10.60;;;3.78;;
39308;SDS011;26019;47.510;19.122;2022-09-16T19:44:59;6.82;;;3.80;;
39308;SDS011;26019;47.510;19.122;2022-09-16T19:55:04;12.75;;;4.68;;
39308;SDS011;26019;47.510;19.122;2022-09-16T20:05:06;7.85;;;3.60;;
39308;SDS011;26019;47.510;19.122;2022-09-16T20:15:09;5.13;;;3.03;;
39308;SDS011;26019;47.510;19.122;2022-09-16T20:25:11;4.13;;;3.40;;
39308;SDS011;26019;47.510;19.122;2022-09-16T20:35:23;7.72;;;3.42;;
39308;SDS011;26019;47.510;19.122;2022-09-16T20:45:25;6.20;;;3.80;;
39308;SDS011;26019;47.510;19.122;2022-09-16T20:55:28;4.80;;;3.63;;
39308;SDS011;26019;47.510;19.122;2022-09-16T21:05:30;6.63;;;3.55;;
39308;SDS011;26019;47.510;19.122;2022-09-16T21:15:32;10.60;;;3.60;;
39308;SDS011;26019;47.510;19.122;2022-09-16T21:25:34;7.47;;;3.97;;
39308;SDS011;26019;47.510;19.122;2022-09-16T21:35:36;4.15;;;3.47;;
39308;SDS011;26019;47.510;19.122;2022-09-16T21:45:41;6.37;;;3.97;;
39308;SDS011;26019;47.510;19.122;2022-09-16T21:55:44;6.07;;;4.22;;
39308;SDS011;26019;47.510;19.122;2022-09-16T22:05:46;6.20;;;4.80;;
39308;SDS011;26019;47.510;19.122;2022-09-16T22:15:49;6.77;;;4.47;;
39308;SDS011;26019;47.510;19.122;2022-09-16T22:25:51;4.85;;;3.90;;
39308;SDS011;26019;47.510;19.122;2022-09-16T22:35:53;5.53;;;4.73;;
39308;SDS011;26019;47.510;19.122;2022-09-16T22:46:04;5.13;;;4.60;;
39308;SDS011;26019;47.510;19.122;2022-09-16T22:56:09;8.02;;;5.53;;
39308;SDS011;26019;47.510;19.122;2022-09-16T23:06:14;6.30;;;4.22;;
39308;SDS011;26019;47.510;19.122;2022-09-16T23:16:17;7.63;;;4.40;;
39308;SDS011;26019;47.510;19.122;2022-09-16T23:26:22;6.72;;;4.90;;
39308;SDS011;26019;47.510;19.122;2022-09-16T23:36:28;8.80;;;6.65;;
39308;SDS011;26019;47.510;19.122;2022-09-16T23:46:32;8.77;;;6.40;;
39308;SDS011;26019;47.510;19.122;2022-09-16T23:56:43;11.52;;;7.13;;
